createdAt,value
2022-12-29T00:02:12.002Z,1.77
2022-12-29T00:04:38.337Z,1.50
2022-12-29T00:07:05.490Z,1.70
2022-12-29T00:09:32.048Z,1.80
2022-12-29T00:11:58.849Z,2.00
2022-12-29T00:14:43.563Z,1.83
2022-12-29T00:17:09.815Z,2.17
2022-12-29T00:19:54.560Z,1.40
2022-12-29T00:22:39.224Z,1.63
2022-12-29T00:25:24.516Z,2.00
2022-12-29T00:28:09.317Z,1.47
2022-12-29T00:30:55.154Z,1.70
2022-12-29T00:33:40.700Z,1.80
2022-12-29T00:36:16.319Z,2.00
2022-12-29T00:39:05.021Z,1.60
2022-12-29T00:41:49.776Z,1.57
2022-12-29T00:44:16.079Z,1.60
2022-12-29T00:46:43.408Z,1.60
2022-12-29T00:49:30.157Z,1.77
2022-12-29T00:51:57.644Z,1.70
2022-12-29T00:54:23.898Z,1.73
2022-12-29T00:56:50.864Z,1.70
2022-12-29T00:59:17.200Z,1.77
2022-12-29T01:01:44.986Z,1.60
2022-12-29T01:04:11.436Z,2.03
2022-12-29T01:06:38.528Z,1.80
2022-12-29T01:09:23.810Z,2.00
2022-12-29T01:11:50.538Z,1.70
2022-12-29T01:14:17.435Z,1.50
2022-12-29T01:16:44.345Z,1.80
2022-12-29T01:19:10.633Z,1.87
2022-12-29T01:21:36.855Z,1.80
2022-12-29T01:24:03.202Z,1.70
2022-12-29T01:26:29.439Z,1.70
2022-12-29T01:28:55.687Z,1.80
2022-12-29T01:31:22.026Z,1.70
2022-12-29T01:33:48.272Z,1.73
2022-12-29T01:36:15.995Z,1.70
2022-12-29T01:38:43.571Z,1.50
2022-12-29T01:41:10.837Z,1.60
2022-12-29T01:43:43.221Z,1.83
2022-12-29T01:46:31.361Z,2.07
2022-12-29T01:49:09.543Z,1.60
2022-12-29T01:51:39.136Z,1.67
2022-12-29T01:54:07.339Z,1.90
2022-12-29T01:56:33.891Z,1.60
2022-12-29T01:59:07.325Z,2.37
2022-12-29T02:01:33.794Z,1.80
2022-12-29T02:04:00.511Z,1.73
2022-12-29T02:06:29.277Z,1.80
2022-12-29T02:08:57.887Z,1.73
2022-12-29T02:11:25.240Z,1.80
2022-12-29T02:13:51.604Z,1.60
2022-12-29T02:16:31.929Z,2.00
2022-12-29T02:19:22.360Z,1.80
2022-12-29T02:22:00.709Z,1.80
2022-12-29T02:24:45.851Z,1.80
2022-12-29T02:27:12.410Z,1.60
2022-12-29T02:29:59.447Z,1.47
2022-12-29T02:32:37.776Z,1.90
2022-12-29T02:35:15.879Z,1.60
2022-12-29T02:37:42.144Z,1.73
2022-12-29T02:40:16.086Z,1.73
2022-12-29T02:43:01.343Z,1.70
2022-12-29T02:45:31.761Z,1.70
2022-12-29T02:48:05.011Z,1.67
2022-12-29T02:50:34.411Z,1.60
2022-12-29T02:53:02.480Z,1.80
2022-12-29T02:55:28.793Z,2.07
2022-12-29T03:04:04.799Z,1.30
2022-12-29T03:06:33.743Z,1.47
2022-12-29T03:09:19.432Z,1.57
2022-12-29T03:12:11.686Z,1.60
2022-12-29T03:15:20.554Z,1.70
2022-12-29T03:17:51.607Z,1.30
2022-12-29T03:20:38.802Z,1.50
2022-12-29T03:23:06.260Z,1.43
2022-12-29T03:25:38.663Z,1.53
2022-12-29T03:28:07.677Z,1.80
2022-12-29T03:30:35.369Z,1.60
2022-12-29T03:33:04.478Z,1.60
2022-12-29T03:35:32.533Z,1.70
2022-12-29T03:38:19.952Z,1.73
2022-12-29T03:40:49.992Z,1.77
2022-12-29T03:43:16.693Z,1.50
2022-12-29T03:45:44.459Z,1.23
2022-12-29T03:48:10.690Z,1.50
2022-12-29T03:50:36.928Z,1.60
2022-12-29T03:53:03.162Z,1.47
2022-12-29T03:55:29.448Z,1.50
2022-12-29T03:57:55.695Z,1.50
2022-12-29T04:00:21.912Z,1.90
2022-12-29T04:02:48.265Z,1.50
2022-12-29T04:05:14.852Z,1.60
2022-12-29T04:07:41.144Z,1.50
2022-12-29T04:10:07.638Z,1.50
2022-12-29T04:12:33.957Z,1.73
2022-12-29T04:15:00.492Z,1.70
2022-12-29T04:17:26.748Z,1.83
2022-12-29T04:20:12.970Z,1.40
2022-12-29T04:22:39.232Z,1.50
2022-12-29T04:25:05.670Z,1.60
2022-12-29T04:27:31.892Z,1.53
2022-12-29T04:29:58.113Z,1.90
2022-12-29T04:32:24.350Z,1.80
2022-12-29T04:34:50.566Z,1.50
2022-12-29T04:37:16.867Z,1.60
2022-12-29T04:39:43.097Z,1.60
2022-12-29T04:42:09.349Z,1.90
2022-12-29T04:44:39.792Z,1.47
2022-12-29T04:47:10.527Z,1.47
2022-12-29T04:49:36.787Z,1.80
2022-12-29T04:52:03.388Z,1.50
2022-12-29T04:54:29.650Z,1.70
2022-12-29T04:56:55.869Z,1.50
2022-12-29T04:59:22.117Z,1.40
2022-12-29T05:01:48.470Z,1.60
2022-12-29T05:04:14.750Z,1.60
2022-12-29T05:06:40.962Z,1.53
2022-12-29T05:09:07.417Z,1.47
2022-12-29T05:11:33.846Z,1.87
2022-12-29T05:14:00.137Z,1.47
2022-12-29T05:16:26.431Z,1.43
2022-12-29T05:18:52.700Z,1.83
2022-12-29T05:21:18.939Z,1.83
2022-12-29T05:23:45.182Z,1.50
2022-12-29T05:26:11.401Z,1.63
2022-12-29T05:28:37.678Z,1.53
2022-12-29T05:31:03.973Z,1.90
2022-12-29T05:33:30.315Z,1.50
2022-12-29T05:35:56.568Z,1.60
2022-12-29T05:38:22.815Z,1.80
2022-12-29T05:40:49.028Z,1.70
2022-12-29T05:43:15.659Z,1.50
2022-12-29T05:45:41.934Z,1.40
2022-12-29T05:48:08.162Z,1.50
2022-12-29T05:50:34.421Z,1.57
2022-12-29T05:53:00.662Z,1.60
2022-12-29T05:55:26.891Z,1.60
2022-12-29T05:57:53.170Z,1.40
2022-12-29T06:00:19.464Z,1.70
2022-12-29T06:02:45.875Z,1.50
2022-12-29T06:05:12.301Z,1.37
2022-12-29T06:07:38.643Z,1.80
2022-12-29T06:10:06.051Z,1.40
2022-12-29T06:12:35.338Z,1.60
2022-12-29T06:15:01.549Z,1.40
2022-12-29T06:17:27.761Z,1.30
2022-12-29T06:19:53.996Z,1.40
2022-12-29T06:22:20.247Z,1.50
2022-12-29T06:24:46.560Z,1.47
2022-12-29T06:27:12.817Z,1.70
2022-12-29T06:29:40.960Z,1.57
2022-12-29T06:32:07.247Z,1.53
2022-12-29T06:34:33.610Z,1.60
2022-12-29T06:36:59.957Z,1.53
2022-12-29T06:39:27.497Z,1.50
2022-12-29T06:41:54.709Z,1.50
2022-12-29T06:44:22.279Z,1.40
2022-12-29T06:46:49.223Z,1.50
2022-12-29T06:49:15.511Z,1.30
2022-12-29T06:51:41.771Z,1.30
2022-12-29T06:54:08.046Z,1.30
2022-12-29T06:56:34.290Z,1.30
2022-12-29T06:59:02.030Z,1.40
2022-12-29T07:01:28.420Z,1.30
2022-12-29T07:03:54.740Z,1.33
2022-12-29T07:06:21.175Z,1.40
2022-12-29T07:08:47.423Z,1.43
2022-12-29T07:11:13.924Z,1.33
2022-12-29T07:13:40.388Z,1.33
2022-12-29T07:16:07.707Z,1.30
2022-12-29T07:18:34.017Z,1.30
2022-12-29T07:21:00.282Z,1.30
2022-12-29T07:23:26.588Z,1.30
2022-12-29T07:26:06.137Z,1.43
2022-12-29T07:28:33.213Z,1.37
2022-12-29T07:31:00.046Z,1.47
2022-12-29T07:33:26.639Z,1.47
2022-12-29T07:35:53.017Z,1.50
2022-12-29T07:38:19.261Z,1.63
2022-12-29T07:40:45.536Z,1.50
2022-12-29T07:43:11.782Z,1.40
2022-12-29T07:45:38.082Z,1.40
2022-12-29T07:48:06.815Z,1.30
2022-12-29T07:50:33.043Z,1.13
2022-12-29T07:52:59.258Z,1.30
2022-12-29T07:55:25.486Z,1.30
2022-12-29T07:57:53.738Z,1.20
2022-12-29T08:00:20.127Z,1.30
2022-12-29T08:02:46.419Z,1.00
2022-12-29T08:05:12.801Z,1.60
2022-12-29T08:07:39.073Z,1.20
2022-12-29T08:10:05.674Z,1.13
2022-12-29T08:12:32.070Z,1.40
2022-12-29T08:14:58.376Z,1.50
2022-12-29T08:17:24.644Z,1.40
2022-12-29T08:19:50.934Z,1.17
2022-12-29T08:22:17.234Z,1.10
2022-12-29T08:24:43.534Z,1.30
2022-12-29T08:27:19.692Z,1.30
2022-12-29T08:29:46.823Z,1.70
2022-12-29T08:32:13.321Z,1.67
2022-12-29T08:34:39.585Z,1.10
2022-12-29T08:37:05.835Z,1.23
2022-12-29T08:39:32.094Z,1.30
2022-12-29T08:41:58.447Z,1.20
2022-12-29T08:44:24.805Z,1.40
2022-12-29T08:46:51.151Z,1.30
2022-12-29T08:49:17.400Z,1.40
2022-12-29T08:51:43.712Z,1.30
2022-12-29T08:54:09.961Z,1.40
2022-12-29T08:56:36.217Z,1.50
2022-12-29T08:59:02.500Z,1.37
2022-12-29T09:01:28.865Z,1.50
2022-12-29T09:06:41.995Z,1.30
2022-12-29T09:09:08.329Z,1.20
2022-12-29T09:11:34.628Z,1.20
2022-12-29T09:14:01.015Z,1.30
2022-12-29T09:16:27.996Z,1.37
2022-12-29T09:18:54.322Z,1.30
2022-12-29T09:21:20.942Z,1.50
2022-12-29T09:23:47.179Z,1.33
2022-12-29T09:26:13.391Z,1.60
2022-12-29T09:28:39.971Z,1.47
2022-12-29T09:31:06.420Z,1.30
2022-12-29T09:33:34.668Z,1.50
2022-12-29T09:36:00.958Z,1.23
2022-12-29T09:38:27.731Z,1.40
2022-12-29T09:41:16.654Z,1.30
2022-12-29T09:43:59.772Z,1.30
2022-12-29T09:46:30.962Z,1.40
2022-12-29T09:49:08.331Z,1.10
2022-12-29T09:51:35.947Z,1.17
2022-12-29T09:54:23.928Z,1.40
2022-12-29T09:56:50.904Z,1.17
2022-12-29T09:59:20.505Z,1.30
2022-12-29T10:01:54.236Z,1.77
2022-12-29T10:04:20.670Z,1.20
2022-12-29T10:07:28.707Z,1.20
2022-12-29T10:10:10.312Z,1.30
2022-12-29T10:12:55.422Z,1.10
2022-12-29T10:15:30.734Z,1.37
2022-12-29T10:18:07.916Z,1.10
2022-12-29T10:20:39.148Z,1.40
2022-12-29T10:23:13.513Z,1.43
2022-12-29T10:25:40.388Z,1.30
2022-12-29T10:28:11.170Z,1.30
2022-12-29T10:30:37.860Z,1.13
2022-12-29T10:33:07.089Z,1.40
2022-12-29T10:35:39.917Z,1.70
2022-12-29T10:38:13.569Z,1.30
2022-12-29T10:40:54.404Z,1.20
2022-12-29T10:43:30.741Z,1.13
2022-12-29T10:46:03.039Z,1.40
2022-12-29T10:48:32.185Z,1.30
2022-12-29T10:51:01.940Z,1.30
2022-12-29T10:53:34.062Z,1.23
2022-12-29T10:56:01.456Z,1.10
2022-12-29T10:58:28.645Z,1.00
2022-12-29T11:00:55.432Z,1.10
2022-12-29T11:03:34.499Z,1.30
2022-12-29T11:06:04.945Z,1.10
2022-12-29T11:08:34.324Z,1.20
2022-12-29T11:11:02.062Z,1.20
2022-12-29T11:13:38.942Z,1.23
2022-12-29T11:16:05.983Z,1.10
2022-12-29T11:18:40.811Z,1.20
2022-12-29T11:21:08.601Z,1.00
2022-12-29T11:23:34.897Z,1.27
2022-12-29T11:26:06.958Z,1.10
2022-12-29T11:28:34.222Z,1.10
2022-12-29T11:31:02.410Z,1.10
2022-12-29T11:33:32.467Z,1.00
2022-12-29T11:36:07.342Z,1.00
2022-12-29T11:38:38.167Z,1.17
2022-12-29T11:41:05.751Z,1.10
2022-12-29T11:43:36.923Z,1.10
2022-12-29T11:46:06.216Z,1.27
2022-12-29T11:48:34.364Z,0.93
2022-12-29T11:51:00.785Z,0.90
2022-12-29T11:53:26.992Z,1.17
2022-12-29T11:55:57.563Z,1.20
2022-12-29T11:58:33.564Z,0.90
2022-12-29T12:01:02.760Z,0.70
2022-12-29T12:03:31.382Z,0.93
2022-12-29T12:06:01.439Z,0.80
2022-12-29T12:08:44.739Z,1.03
2022-12-29T12:11:25.816Z,0.80
2022-12-29T12:13:52.106Z,0.90
2022-12-29T12:16:20.322Z,0.80
2022-12-29T12:18:49.319Z,0.60
2022-12-29T12:21:20.347Z,0.70
2022-12-29T12:23:58.090Z,0.70
2022-12-29T12:26:43.059Z,0.70
2022-12-29T12:29:20.142Z,0.77
2022-12-29T12:32:02.086Z,1.00
2022-12-29T12:34:38.997Z,1.10
2022-12-29T12:37:07.973Z,0.97
2022-12-29T12:39:43.167Z,1.23
2022-12-29T12:42:20.901Z,1.00
2022-12-29T12:45:05.899Z,0.73
2022-12-29T12:47:52.387Z,0.90
2022-12-29T12:50:30.382Z,0.90
2022-12-29T12:53:08.183Z,0.80
2022-12-29T12:55:43.750Z,0.90
2022-12-29T12:58:21.210Z,0.97
2022-12-29T13:01:06.162Z,0.70
2022-12-29T13:03:39.547Z,0.80
2022-12-29T13:06:08.964Z,0.80
2022-12-29T13:08:35.162Z,1.10
2022-12-29T13:11:01.436Z,0.80
2022-12-29T13:13:33.783Z,0.90
2022-12-29T13:16:15.197Z,1.07
2022-12-29T13:18:53.656Z,1.00
2022-12-29T13:21:31.072Z,1.20
2022-12-29T13:24:10.906Z,0.80
2022-12-29T13:26:40.563Z,1.07
2022-12-29T13:29:13.777Z,0.73
2022-12-29T13:31:53.095Z,1.00
2022-12-29T13:34:33.185Z,1.00
2022-12-29T13:37:04.186Z,1.20
2022-12-29T13:39:39.404Z,1.13
2022-12-29T13:42:06.335Z,1.33
2022-12-29T13:44:36.783Z,1.00
2022-12-29T13:47:26.034Z,1.20
2022-12-29T13:49:52.881Z,1.10
2022-12-29T13:52:33.282Z,1.30
2022-12-29T13:55:06.404Z,1.23
2022-12-29T13:57:43.422Z,1.30
2022-12-29T14:00:14.053Z,1.10
2022-12-29T14:02:51.811Z,1.10
2022-12-29T14:05:21.193Z,1.10
2022-12-29T14:07:48.237Z,1.10
2022-12-29T14:10:29.988Z,1.20
2022-12-29T14:13:16.573Z,1.20
2022-12-29T14:15:44.608Z,1.53
2022-12-29T14:18:24.997Z,1.43
2022-12-29T14:20:59.175Z,1.60
2022-12-29T14:23:28.557Z,1.27
2022-12-29T14:25:54.853Z,1.30
2022-12-29T14:28:25.537Z,1.33
2022-12-29T14:30:53.823Z,1.43
2022-12-29T14:33:21.280Z,1.30
2022-12-29T14:35:50.567Z,1.50
2022-12-29T14:38:18.675Z,1.63
2022-12-29T14:40:45.724Z,1.40
2022-12-29T14:43:26.314Z,1.40
2022-12-29T14:45:55.174Z,1.37
2022-12-29T14:48:53.785Z,1.20
2022-12-29T14:51:22.143Z,1.33
2022-12-29T14:53:49.893Z,1.50
2022-12-29T14:56:17.390Z,1.40
2022-12-29T14:58:58.119Z,1.27
2022-12-29T15:01:33.953Z,1.40
2022-12-29T15:04:04.551Z,1.93
2022-12-29T15:06:31.510Z,1.50
2022-12-29T15:09:17.521Z,1.80
2022-12-29T15:11:52.745Z,1.80
2022-12-29T15:14:27.965Z,1.73
2022-12-29T15:16:54.295Z,1.93
2022-12-29T15:19:24.499Z,1.77
2022-12-29T15:21:50.925Z,1.50
2022-12-29T15:24:17.260Z,1.60
2022-12-29T15:26:45.091Z,1.60
2022-12-29T15:29:30.120Z,1.43
2022-12-29T15:31:57.143Z,1.23
2022-12-29T15:34:23.533Z,1.47
2022-12-29T15:36:51.066Z,1.30
2022-12-29T15:39:20.841Z,1.23
2022-12-29T15:42:00.818Z,1.30
2022-12-29T15:44:27.160Z,1.20
2022-12-29T15:46:53.452Z,1.80
2022-12-29T15:49:20.716Z,1.60
2022-12-29T15:51:47.225Z,1.50
2022-12-29T15:54:16.447Z,1.83
2022-12-29T15:56:42.983Z,1.33
2022-12-29T15:59:24.048Z,1.30
2022-12-29T16:01:50.620Z,1.70
2022-12-29T16:04:17.138Z,1.60
2022-12-29T16:06:55.092Z,1.67
2022-12-29T16:09:32.328Z,1.60
2022-12-29T16:12:09.227Z,2.00
2022-12-29T16:14:42.117Z,1.87
2022-12-29T16:17:11.291Z,1.83
2022-12-29T16:19:39.826Z,2.13
2022-12-29T16:22:16.011Z,1.90
2022-12-29T16:24:42.326Z,2.03
2022-12-29T16:27:10.848Z,1.60
2022-12-29T16:29:37.341Z,1.70
2022-12-29T16:32:04.229Z,1.57
2022-12-29T16:34:42.876Z,1.60
2022-12-29T16:37:27.908Z,1.63
2022-12-29T16:39:54.152Z,1.50
2022-12-29T16:42:43.282Z,1.70
2022-12-29T16:45:19.544Z,1.30
2022-12-29T16:47:49.815Z,1.17
2022-12-29T16:50:28.046Z,1.53
2022-12-29T16:52:54.973Z,1.90
2022-12-29T16:55:21.253Z,1.30
2022-12-29T16:57:48.750Z,1.40
2022-12-29T17:00:19.606Z,1.20
2022-12-29T17:02:46.366Z,1.13
2022-12-29T17:05:16.782Z,1.20
2022-12-29T17:07:43.109Z,1.53
2022-12-29T17:10:09.618Z,1.47
2022-12-29T17:12:36.823Z,1.30
2022-12-29T17:15:07.388Z,1.20
2022-12-29T17:17:38.981Z,1.00
2022-12-29T17:20:06.699Z,1.20
2022-12-29T17:22:33.122Z,1.20
2022-12-29T17:25:00.986Z,1.30
2022-12-29T17:27:38.743Z,1.27
2022-12-29T17:30:13.211Z,1.03
2022-12-29T17:32:41.201Z,1.00
2022-12-29T17:35:13.669Z,1.27
2022-12-29T17:37:39.922Z,1.20
2022-12-29T17:40:07.385Z,1.30
2022-12-29T17:42:34.975Z,1.20
2022-12-29T17:45:01.873Z,1.00
2022-12-29T17:47:28.131Z,1.20
2022-12-29T17:49:55.213Z,1.20
2022-12-29T17:52:21.517Z,1.50
2022-12-29T17:54:50.732Z,1.20
2022-12-29T17:57:17.807Z,2.03
2022-12-29T17:59:44.159Z,1.70
2022-12-29T18:02:21.749Z,3.40
2022-12-29T18:04:48.012Z,2.33
2022-12-29T18:07:14.234Z,1.53
2022-12-29T18:09:40.615Z,1.40
2022-12-29T18:12:13.907Z,1.60
2022-12-29T18:14:40.117Z,1.20
2022-12-29T18:17:12.544Z,1.10
2022-12-29T18:19:38.773Z,1.40
2022-12-29T18:22:04.995Z,1.43
2022-12-29T18:24:31.209Z,1.70
2022-12-29T18:26:57.449Z,1.70
2022-12-29T18:29:23.701Z,2.60
2022-12-29T18:31:49.962Z,1.70
2022-12-29T18:34:20.085Z,1.40
2022-12-29T18:36:46.340Z,1.70
2022-12-29T18:39:12.895Z,1.50
2022-12-29T18:41:39.310Z,1.93
2022-12-29T18:44:10.365Z,1.60
2022-12-29T18:46:36.828Z,1.80
2022-12-29T18:49:03.246Z,1.70
2022-12-29T18:51:29.474Z,1.93
2022-12-29T18:53:55.705Z,2.30
2022-12-29T18:56:22.595Z,2.30
2022-12-29T18:58:48.976Z,3.00
2022-12-29T19:01:20.406Z,2.80
2022-12-29T19:03:47.216Z,2.70
2022-12-29T19:06:13.484Z,2.20
2022-12-29T19:08:39.725Z,2.20
2022-12-29T19:11:06.095Z,2.20
2022-12-29T19:13:33.661Z,2.60
2022-12-29T19:16:00.048Z,2.30
2022-12-29T19:18:44.599Z,2.30
2022-12-29T19:21:12.712Z,2.13
2022-12-29T19:23:38.944Z,2.37
2022-12-29T19:26:05.467Z,2.17
2022-12-29T19:28:31.706Z,2.30
2022-12-29T19:30:59.688Z,2.20
2022-12-29T19:33:26.463Z,2.30
2022-12-29T19:35:52.798Z,2.00
2022-12-29T19:38:19.420Z,2.30
2022-12-29T19:40:46.799Z,2.00
2022-12-29T19:43:14.030Z,2.10
2022-12-29T19:45:40.676Z,2.13
2022-12-29T19:48:07.726Z,1.80
2022-12-29T19:50:34.078Z,2.20
2022-12-29T19:53:05.344Z,2.20
2022-12-29T19:55:33.647Z,2.13
2022-12-29T19:58:00.015Z,1.73
2022-12-29T20:00:26.481Z,1.73
2022-12-29T20:02:53.147Z,2.00
2022-12-29T20:05:19.742Z,1.67
2022-12-29T20:07:46.077Z,2.03
2022-12-29T20:10:12.347Z,2.10
2022-12-29T20:12:38.650Z,1.87
2022-12-29T20:15:06.340Z,1.90
2022-12-29T20:18:10.380Z,2.00
2022-12-29T20:20:18.772Z,1.97
2022-12-29T20:22:44.991Z,2.00
2022-12-29T20:25:43.707Z,1.93
2022-12-29T20:27:57.421Z,2.07
2022-12-29T20:30:24.971Z,2.10
2022-12-29T20:32:51.423Z,2.40
2022-12-29T20:35:17.682Z,2.30
2022-12-29T20:37:43.941Z,2.87
2022-12-29T20:40:10.181Z,2.13
2022-12-29T20:42:36.484Z,1.70
2022-12-29T20:45:02.782Z,1.77
2022-12-29T20:47:29.052Z,1.90
2022-12-29T20:49:55.274Z,2.00
2022-12-29T20:52:21.499Z,1.80
2022-12-29T20:54:47.720Z,2.00
2022-12-29T20:57:13.942Z,1.50
2022-12-29T20:59:40.380Z,1.60
2022-12-29T21:02:06.825Z,1.43
2022-12-29T21:04:57.505Z,1.60
2022-12-29T21:07:20.351Z,1.40
2022-12-29T21:09:46.807Z,1.93
2022-12-29T21:12:13.335Z,1.40
2022-12-29T21:14:45.242Z,1.33
2022-12-29T21:17:12.932Z,1.50
2022-12-29T21:19:39.248Z,1.37
2022-12-29T21:22:05.547Z,1.80
2022-12-29T21:24:31.779Z,1.37
2022-12-29T21:26:57.989Z,1.50
2022-12-29T21:29:24.383Z,1.70
2022-12-29T21:31:50.818Z,1.50
2022-12-29T21:34:17.378Z,1.83
2022-12-29T21:36:43.608Z,1.57
2022-12-29T21:39:10.149Z,1.30
2022-12-29T21:41:36.384Z,1.30
2022-12-29T21:44:21.188Z,1.53
2022-12-29T21:46:50.136Z,1.60
2022-12-29T21:49:16.436Z,1.60
2022-12-29T21:51:51.717Z,1.50
2022-12-29T21:54:41.545Z,1.43
2022-12-29T21:57:08.047Z,1.60
2022-12-29T21:59:53.053Z,1.50
2022-12-29T22:02:38.035Z,1.80
2022-12-29T22:05:23.425Z,2.20
2022-12-29T22:08:08.210Z,1.50
2022-12-29T22:10:57.131Z,1.33
2022-12-29T22:13:23.403Z,1.43
2022-12-29T22:15:49.664Z,1.53
2022-12-29T22:18:15.965Z,1.10
2022-12-29T22:20:42.206Z,1.43
2022-12-29T22:23:08.479Z,1.50
2022-12-29T22:25:34.775Z,1.50
2022-12-29T22:28:00.993Z,1.30
2022-12-29T22:30:28.328Z,1.90
2022-12-29T22:32:54.627Z,1.33
2022-12-29T22:35:20.879Z,1.60
2022-12-29T22:37:47.121Z,1.30
2022-12-29T22:40:13.426Z,1.50
2022-12-29T22:42:39.804Z,1.40
2022-12-29T22:45:06.570Z,1.30
2022-12-29T22:47:32.823Z,1.20
2022-12-29T22:49:59.054Z,1.40
2022-12-29T22:52:25.313Z,1.50
2022-12-29T22:54:51.586Z,1.57
2022-12-29T22:57:17.821Z,1.50
2022-12-29T22:59:44.104Z,1.30
2022-12-29T23:02:10.517Z,1.33
2022-12-29T23:07:23.499Z,1.30
2022-12-29T23:09:49.734Z,1.27
2022-12-29T23:12:16.062Z,1.13
2022-12-29T23:14:42.296Z,1.30
2022-12-29T23:17:08.519Z,1.30
2022-12-29T23:19:34.786Z,1.57
2022-12-29T23:22:01.076Z,1.30
2022-12-29T23:24:27.427Z,1.20
2022-12-29T23:26:53.712Z,1.40
2022-12-29T23:29:20.205Z,1.53
2022-12-29T23:31:46.812Z,1.17
2022-12-29T23:34:14.234Z,1.30
2022-12-29T23:36:40.536Z,1.57
2022-12-29T23:39:08.742Z,1.43
2022-12-29T23:41:35.069Z,1.40
2022-12-29T23:44:06.367Z,1.30
2022-12-29T23:46:32.699Z,1.40
2022-12-29T23:48:58.974Z,1.50
2022-12-29T23:51:25.349Z,1.30
2022-12-29T23:53:51.659Z,1.20
2022-12-29T23:56:19.057Z,1.30
2022-12-29T23:58:45.357Z,1.60
